createdAt,value
2022-12-03T00:00:47.472Z,10.10
2022-12-03T00:03:15.117Z,9.70
2022-12-03T00:05:48.717Z,9.90
2022-12-03T00:08:10.929Z,9.23
2022-12-03T00:10:38.388Z,9.60
2022-12-03T00:13:06.728Z,8.87
2022-12-03T00:15:34.584Z,8.87
2022-12-03T00:18:02.844Z,9.70
2022-12-03T00:20:30.427Z,8.33
2022-12-03T00:22:57.952Z,9.53
2022-12-03T00:25:25.476Z,9.03
2022-12-03T00:27:53.042Z,9.50
2022-12-03T00:30:21.354Z,7.60
2022-12-03T00:32:48.889Z,8.40
2022-12-03T00:35:17.221Z,8.10
2022-12-03T00:37:44.751Z,8.73
2022-12-03T00:40:12.361Z,9.10
2022-12-03T00:42:39.953Z,9.00
2022-12-03T00:45:07.547Z,10.03
2022-12-03T00:47:35.072Z,11.20
2022-12-03T00:50:02.641Z,9.07
2022-12-03T00:52:30.162Z,8.83
2022-12-03T00:54:57.686Z,7.80
2022-12-03T00:57:25.250Z,8.67
2022-12-03T00:59:52.775Z,8.50
2022-12-03T01:02:20.350Z,8.57
2022-12-03T01:04:49.586Z,9.03
2022-12-03T01:07:17.073Z,8.77
2022-12-03T01:09:45.365Z,9.13
2022-12-03T01:12:12.930Z,9.57
2022-12-03T01:14:40.484Z,8.70
2022-12-03T01:17:08.011Z,8.13
2022-12-03T01:19:35.919Z,8.33
2022-12-03T01:22:03.443Z,8.30
2022-12-03T01:24:31.747Z,9.23
2022-12-03T01:26:59.324Z,9.23
2022-12-03T01:29:26.846Z,8.27
2022-12-03T01:32:13.857Z,7.87
2022-12-03T01:34:42.148Z,8.37
2022-12-03T01:37:09.684Z,6.90
2022-12-03T01:39:38.203Z,7.63
2022-12-03T01:42:05.752Z,7.97
2022-12-03T01:44:34.070Z,7.80
2022-12-03T01:47:04.641Z,8.77
2022-12-03T01:49:40.797Z,10.40
2022-12-03T01:52:14.790Z,8.70
2022-12-03T01:54:45.062Z,8.80
2022-12-03T01:57:15.521Z,11.15
2022-12-03T01:59:43.087Z,8.33
2022-12-03T02:02:13.667Z,7.57
2022-12-03T02:04:41.864Z,9.23
2022-12-03T02:07:24.706Z,8.13
2022-12-03T02:09:52.184Z,7.67
2022-12-03T02:12:19.664Z,10.45
2022-12-03T02:14:48.016Z,8.20
2022-12-03T02:17:15.551Z,7.53
2022-12-03T02:19:43.086Z,7.30
2022-12-03T02:22:17.493Z,7.80
2022-12-03T02:25:00.155Z,7.23
2022-12-03T02:27:27.715Z,7.73
2022-12-03T02:29:55.240Z,7.60
2022-12-03T02:32:22.775Z,10.20
2022-12-03T02:34:51.432Z,6.80
2022-12-03T02:37:21.349Z,7.80
2022-12-03T02:39:49.642Z,8.93
2022-12-03T02:42:36.891Z,8.03
2022-12-03T02:45:07.210Z,8.47
2022-12-03T02:47:34.754Z,7.20
2022-12-03T02:50:02.319Z,7.97
2022-12-03T02:52:29.853Z,7.23
2022-12-03T02:54:57.385Z,8.27
2022-12-03T02:57:24.974Z,7.93
2022-12-03T02:59:52.499Z,8.17
2022-12-03T03:02:20.085Z,7.80
2022-12-03T03:04:47.842Z,9.82
2022-12-03T03:07:15.367Z,7.97
2022-12-03T03:09:42.904Z,7.63
2022-12-03T03:12:10.468Z,6.90
2022-12-03T03:14:37.991Z,7.93
2022-12-03T03:17:06.294Z,7.43
2022-12-03T03:19:34.163Z,7.60
2022-12-03T03:22:01.698Z,9.00
2022-12-03T03:24:30.012Z,8.73
2022-12-03T03:26:57.575Z,8.63
2022-12-03T03:29:25.113Z,8.33
2022-12-03T03:31:52.703Z,7.73
2022-12-03T03:34:20.327Z,8.13
2022-12-03T03:36:47.877Z,8.33
2022-12-03T03:39:16.167Z,8.87
2022-12-03T03:41:44.949Z,7.70
2022-12-03T03:44:12.496Z,8.67
2022-12-03T03:46:40.786Z,9.57
2022-12-03T03:49:08.962Z,9.10
2022-12-03T03:51:36.486Z,8.70
2022-12-03T03:54:04.012Z,8.27
2022-12-03T03:56:32.520Z,8.10
2022-12-03T03:59:00.047Z,8.60
2022-12-03T04:01:27.621Z,9.00
2022-12-03T04:03:55.185Z,8.87
2022-12-03T04:06:22.682Z,8.00
2022-12-03T04:08:50.215Z,8.30
2022-12-03T04:11:35.858Z,8.30
2022-12-03T04:14:03.392Z,7.87
2022-12-03T04:16:31.762Z,8.00
2022-12-03T04:18:59.258Z,8.40
2022-12-03T04:21:45.038Z,8.53
2022-12-03T04:24:12.625Z,7.93
2022-12-03T04:26:58.184Z,6.83
2022-12-03T04:29:25.751Z,7.70
2022-12-03T04:32:11.442Z,7.67
2022-12-03T04:34:57.581Z,8.60
2022-12-03T04:37:25.670Z,10.30
2022-12-03T04:39:53.195Z,8.60
2022-12-03T04:42:20.759Z,8.40
2022-12-03T04:44:49.051Z,8.20
2022-12-03T04:47:20.199Z,8.67
2022-12-03T04:49:48.386Z,8.60
2022-12-03T04:52:15.913Z,8.80
2022-12-03T04:54:44.234Z,7.50
2022-12-03T04:57:12.386Z,8.37
2022-12-03T04:59:39.913Z,8.57
2022-12-03T05:02:07.515Z,8.10
2022-12-03T05:04:35.012Z,7.73
2022-12-03T05:07:02.529Z,9.93
2022-12-03T05:09:30.055Z,8.97
2022-12-03T05:11:58.392Z,8.43
2022-12-03T05:14:25.917Z,9.90
2022-12-03T05:16:53.483Z,8.50
2022-12-03T05:19:21.018Z,9.00
2022-12-03T05:21:49.308Z,8.57
2022-12-03T05:24:16.834Z,9.10
2022-12-03T05:26:44.388Z,8.23
2022-12-03T05:29:11.915Z,8.17
2022-12-03T05:31:39.449Z,8.17
2022-12-03T05:34:07.025Z,8.03
2022-12-03T05:36:34.549Z,8.33
2022-12-03T05:39:02.893Z,8.47
2022-12-03T05:41:49.762Z,8.73
2022-12-03T05:44:20.503Z,8.13
2022-12-03T05:46:45.673Z,7.80
2022-12-03T05:49:13.173Z,8.23
2022-12-03T05:51:40.699Z,7.67
2022-12-03T05:54:08.232Z,7.90
2022-12-03T05:56:36.132Z,8.37
2022-12-03T05:59:03.660Z,9.43
2022-12-03T06:01:31.182Z,8.27
2022-12-03T06:03:58.819Z,8.33
2022-12-03T06:06:26.271Z,9.13
2022-12-03T06:08:53.797Z,11.35
2022-12-03T06:11:22.147Z,9.67
2022-12-03T06:13:49.664Z,9.30
2022-12-03T06:16:17.248Z,11.88
2022-12-03T06:18:45.561Z,9.40
2022-12-03T06:21:13.055Z,9.60
2022-12-03T06:23:40.579Z,9.83
2022-12-03T06:26:08.183Z,8.67
2022-12-03T06:28:35.709Z,10.17
2022-12-03T06:31:04.056Z,9.10
2022-12-03T06:33:31.871Z,9.33
2022-12-03T06:35:59.417Z,10.52
2022-12-03T06:38:27.699Z,9.73
2022-12-03T06:40:56.023Z,8.43
2022-12-03T06:43:23.555Z,9.20
2022-12-03T06:45:51.090Z,8.33
2022-12-03T06:48:19.422Z,8.80
2022-12-03T06:50:46.957Z,8.47
2022-12-03T06:53:14.486Z,8.97
2022-12-03T06:55:42.883Z,9.30
2022-12-03T06:58:10.409Z,8.63
2022-12-03T07:00:38.702Z,9.33
2022-12-03T07:03:06.332Z,8.87
2022-12-03T07:05:34.547Z,8.70
2022-12-03T07:08:02.142Z,8.70
2022-12-03T07:10:29.647Z,9.27
2022-12-03T07:12:57.960Z,9.97
2022-12-03T07:15:25.475Z,9.33
2022-12-03T07:17:53.819Z,9.83
2022-12-03T07:20:21.341Z,12.52
2022-12-03T07:22:48.867Z,13.98
2022-12-03T07:25:22.609Z,10.47
2022-12-03T07:27:44.754Z,10.97
2022-12-03T07:30:12.300Z,10.23
2022-12-03T07:32:39.863Z,10.37
2022-12-03T07:35:07.458Z,10.50
2022-12-03T07:37:34.980Z,10.10
2022-12-03T07:40:02.562Z,10.73
2022-12-03T07:42:30.101Z,10.47
2022-12-03T07:44:57.636Z,9.57
2022-12-03T07:47:25.958Z,9.57
2022-12-03T07:49:53.493Z,10.40
2022-12-03T07:52:21.017Z,10.53
2022-12-03T07:54:50.644Z,9.70
2022-12-03T07:57:18.095Z,9.90
2022-12-03T07:59:45.637Z,9.17
2022-12-03T08:02:19.517Z,9.67
2022-12-03T08:04:41.073Z,10.27
2022-12-03T08:07:09.376Z,10.57
2022-12-03T08:09:37.554Z,10.00
2022-12-03T08:12:05.076Z,9.97
2022-12-03T08:14:33.382Z,9.63
2022-12-03T08:17:00.942Z,9.87
2022-12-03T08:19:28.480Z,10.23
2022-12-03T08:22:01.221Z,11.13
2022-12-03T08:24:24.640Z,11.47
2022-12-03T08:26:52.175Z,11.07
2022-12-03T08:29:20.466Z,14.57
2022-12-03T08:31:50.779Z,11.50
2022-12-03T08:34:18.263Z,10.93
2022-12-03T08:36:45.798Z,11.43
2022-12-03T08:39:32.280Z,10.67
2022-12-03T08:42:18.667Z,11.00
2022-12-03T08:44:46.231Z,11.67
2022-12-03T08:47:16.545Z,14.52
2022-12-03T08:49:44.088Z,14.00
2022-12-03T08:52:17.156Z,14.10
2022-12-03T08:54:44.683Z,11.23
2022-12-03T08:57:24.661Z,10.30
2022-12-03T08:59:52.187Z,11.17
2022-12-03T09:02:20.482Z,10.73
2022-12-03T09:04:48.044Z,9.97
2022-12-03T09:07:15.568Z,13.00
2022-12-03T09:09:43.095Z,10.73
2022-12-03T09:12:10.697Z,10.33
2022-12-03T09:14:39.002Z,10.50
2022-12-03T09:17:06.569Z,10.40
2022-12-03T09:19:36.706Z,10.40
2022-12-03T09:22:03.297Z,9.77
2022-12-03T09:24:31.590Z,10.00
2022-12-03T09:27:00.366Z,10.43
2022-12-03T09:29:27.909Z,17.17
2022-12-03T09:31:56.333Z,12.27
2022-12-03T09:34:23.817Z,11.10
2022-12-03T09:36:51.368Z,13.40
2022-12-03T09:39:18.887Z,13.57
2022-12-03T09:41:46.461Z,11.70
2022-12-03T09:44:18.020Z,11.07
2022-12-03T09:46:42.278Z,10.83
2022-12-03T09:49:15.516Z,10.30
2022-12-03T09:51:37.441Z,13.97
2022-12-03T09:54:04.960Z,11.80
2022-12-03T09:56:32.535Z,10.00
2022-12-03T09:59:00.072Z,10.33
2022-12-03T10:01:30.255Z,8.13
2022-12-03T10:03:56.116Z,9.30
2022-12-03T10:06:23.644Z,13.68
2022-12-03T10:08:51.173Z,8.97
2022-12-03T10:11:18.738Z,8.73
2022-12-03T10:13:46.275Z,9.37
2022-12-03T10:16:13.880Z,12.18
2022-12-03T10:18:41.955Z,13.43
2022-12-03T10:21:11.574Z,10.83
2022-12-03T10:23:39.910Z,12.17
2022-12-03T10:26:07.471Z,12.50
2022-12-03T10:28:37.733Z,9.33
2022-12-03T10:31:06.085Z,12.30
2022-12-03T10:33:33.619Z,11.33
2022-12-03T10:36:22.569Z,14.03
2022-12-03T10:39:14.936Z,13.77
2022-12-03T10:41:42.433Z,10.73
2022-12-03T10:44:22.383Z,10.60
2022-12-03T10:47:11.957Z,10.03
2022-12-03T10:49:39.441Z,13.43
2022-12-03T10:52:06.962Z,16.07
2022-12-03T10:54:35.257Z,14.53
2022-12-03T10:57:04.051Z,19.83
2022-12-03T10:59:31.585Z,10.23
2022-12-03T11:01:59.948Z,8.90
2022-12-03T11:04:33.258Z,9.10
2022-12-03T11:07:04.321Z,11.60
2022-12-03T11:09:31.850Z,8.97
2022-12-03T11:12:05.485Z,8.80
2022-12-03T11:14:54.299Z,7.70
2022-12-03T11:17:39.733Z,9.17
2022-12-03T11:20:16.826Z,9.13
2022-12-03T11:22:40.258Z,8.50
2022-12-03T11:25:26.118Z,8.70
2022-12-03T11:28:14.927Z,8.50
2022-12-03T11:30:52.074Z,8.87
2022-12-03T11:33:31.333Z,8.47
2022-12-03T11:36:04.731Z,8.20
2022-12-03T11:38:38.070Z,9.13
2022-12-03T11:41:08.492Z,9.67
2022-12-03T11:43:57.174Z,9.87
2022-12-03T11:46:31.112Z,12.07
2022-12-03T11:48:58.606Z,9.77
2022-12-03T11:51:26.170Z,8.67
2022-12-03T11:53:53.706Z,10.85
2022-12-03T11:56:21.242Z,11.98
2022-12-03T11:58:48.806Z,10.00
2022-12-03T12:01:16.329Z,9.27
2022-12-03T12:03:46.660Z,9.23
2022-12-03T12:06:14.168Z,9.43
2022-12-03T12:08:50.167Z,9.50
2022-12-03T12:11:17.692Z,8.80
2022-12-03T12:13:45.258Z,9.70
2022-12-03T12:16:12.841Z,9.97
2022-12-03T12:18:43.298Z,12.50
2022-12-03T12:21:44.763Z,9.23
2022-12-03T12:24:42.893Z,9.10
2022-12-03T12:27:10.454Z,8.77
2022-12-03T12:29:37.978Z,8.40
2022-12-03T12:32:11.417Z,10.55
2022-12-03T12:34:38.967Z,8.87
2022-12-03T12:37:09.032Z,11.18
2022-12-03T12:39:36.566Z,8.83
2022-12-03T12:42:05.273Z,9.80
2022-12-03T12:44:32.807Z,9.63
2022-12-03T12:47:01.234Z,8.87
2022-12-03T12:49:28.675Z,9.07
2022-12-03T12:51:56.200Z,8.50
2022-12-03T12:54:24.517Z,8.73
2022-12-03T12:56:52.131Z,11.20
2022-12-03T12:59:19.636Z,8.97
2022-12-03T13:01:47.213Z,9.03
2022-12-03T13:04:17.688Z,8.67
2022-12-03T13:06:45.991Z,8.70
2022-12-03T13:09:16.187Z,9.37
2022-12-03T13:11:44.524Z,9.53
2022-12-03T13:14:18.136Z,9.00
2022-12-03T13:16:45.709Z,9.80
2022-12-03T13:19:13.247Z,10.70
2022-12-03T13:21:40.787Z,10.03
2022-12-03T13:24:35.637Z,12.10
2022-12-03T13:27:19.043Z,11.07
2022-12-03T13:29:47.581Z,10.70
2022-12-03T13:32:20.611Z,12.85
2022-12-03T13:34:48.134Z,10.53
2022-12-03T13:37:24.718Z,12.50
2022-12-03T13:39:52.547Z,11.00
2022-12-03T13:42:41.717Z,10.07
2022-12-03T13:45:15.526Z,10.37
2022-12-03T13:47:45.764Z,9.80
2022-12-03T13:50:22.360Z,9.67
2022-12-03T13:52:49.893Z,11.37
2022-12-03T13:55:17.427Z,10.10
2022-12-03T13:57:45.031Z,11.30
2022-12-03T14:00:12.681Z,10.27
2022-12-03T14:02:40.279Z,10.70
2022-12-03T14:05:08.532Z,11.57
2022-12-03T14:07:36.134Z,11.33
2022-12-03T14:10:03.603Z,11.70
2022-12-03T14:12:32.208Z,11.17
2022-12-03T14:14:59.723Z,10.77
2022-12-03T14:17:28.026Z,10.70
2022-12-03T14:19:55.986Z,11.07
2022-12-03T14:22:23.125Z,10.93
2022-12-03T14:24:51.433Z,10.23
2022-12-03T14:27:19.002Z,11.27
2022-12-03T14:29:46.537Z,11.87
2022-12-03T14:32:14.121Z,11.70
2022-12-03T14:34:41.647Z,10.97
2022-12-03T14:37:09.191Z,13.83
2022-12-03T14:39:36.714Z,12.47
2022-12-03T14:42:17.119Z,11.57
2022-12-03T14:44:50.585Z,14.38
2022-12-03T14:47:22.054Z,11.80
2022-12-03T14:49:50.348Z,11.70
2022-12-03T14:52:17.871Z,12.43
2022-12-03T14:54:45.446Z,10.77
2022-12-03T14:57:12.983Z,11.83
2022-12-03T14:59:40.515Z,11.60
2022-12-03T15:02:08.161Z,14.60
2022-12-03T15:04:35.644Z,12.03
2022-12-03T15:07:03.199Z,14.50
2022-12-03T15:09:30.791Z,12.20
2022-12-03T15:11:58.345Z,11.67
2022-12-03T15:14:25.873Z,11.70
2022-12-03T15:16:53.559Z,15.27
2022-12-03T15:19:20.972Z,12.60
2022-12-03T15:21:48.534Z,11.87
2022-12-03T15:24:16.198Z,11.17
2022-12-03T15:26:43.731Z,10.73
2022-12-03T15:29:12.028Z,11.73
2022-12-03T15:31:40.595Z,10.63
2022-12-03T15:34:08.050Z,10.83
2022-12-03T15:36:35.585Z,10.97
2022-12-03T15:39:03.169Z,10.40
2022-12-03T15:41:30.703Z,9.93
2022-12-03T15:43:58.228Z,9.30
2022-12-03T15:46:25.891Z,13.05
2022-12-03T15:48:53.326Z,10.67
2022-12-03T15:51:20.861Z,10.30
2022-12-03T15:53:50.169Z,9.57
2022-12-03T15:56:17.704Z,11.03
2022-12-03T15:58:46.006Z,9.90
2022-12-03T16:01:13.827Z,9.70
2022-12-03T16:03:41.124Z,10.30
2022-12-03T16:06:08.689Z,9.73
2022-12-03T16:08:36.553Z,9.30
2022-12-03T16:11:04.093Z,10.43
2022-12-03T16:13:32.386Z,13.80
2022-12-03T16:16:00.373Z,12.40
2022-12-03T16:18:27.801Z,13.30
2022-12-03T16:20:56.102Z,13.37
2022-12-03T16:23:23.688Z,12.73
2022-12-03T16:25:51.202Z,11.73
2022-12-03T16:28:18.727Z,11.93
2022-12-03T16:30:46.410Z,10.13
2022-12-03T16:33:14.595Z,10.90
2022-12-03T16:35:42.130Z,10.37
2022-12-03T16:38:09.693Z,10.87
2022-12-03T16:40:37.985Z,11.67
2022-12-03T16:43:05.521Z,12.43
2022-12-03T16:45:51.612Z,11.23
2022-12-03T16:48:18.979Z,11.00
2022-12-03T16:50:46.468Z,10.57
2022-12-03T16:53:14.043Z,11.13
2022-12-03T16:55:41.586Z,11.13
2022-12-03T16:58:09.112Z,9.93
2022-12-03T17:00:37.462Z,10.90
2022-12-03T17:03:05.010Z,10.53
2022-12-03T17:05:32.495Z,10.20
2022-12-03T17:08:00.219Z,10.07
2022-12-03T17:10:27.659Z,11.30
2022-12-03T17:13:11.331Z,10.77
2022-12-03T17:15:23.814Z,12.10
2022-12-03T17:17:51.329Z,11.00
2022-12-03T17:20:19.651Z,11.03
2022-12-03T17:22:47.225Z,10.80
2022-12-03T17:25:14.740Z,11.27
2022-12-03T17:27:45.400Z,11.10
2022-12-03T17:30:09.873Z,10.67
2022-12-03T17:32:37.399Z,12.23
2022-12-03T17:35:05.747Z,11.63
2022-12-03T17:37:33.311Z,10.00
2022-12-03T17:40:00.852Z,10.20
2022-12-03T17:42:28.381Z,11.37
2022-12-03T17:44:56.269Z,10.50
2022-12-03T17:47:23.779Z,10.80
2022-12-03T17:49:52.434Z,13.65
2022-12-03T17:52:19.660Z,12.47
2022-12-03T17:55:09.991Z,11.37
2022-12-03T17:57:14.731Z,11.07
2022-12-03T17:59:43.358Z,11.67
2022-12-03T18:02:10.932Z,11.20
2022-12-03T18:04:39.168Z,12.63
2022-12-03T18:07:06.740Z,11.47
2022-12-03T18:09:34.265Z,12.93
2022-12-03T18:12:02.558Z,11.83
2022-12-03T18:14:30.152Z,11.93
2022-12-03T18:16:57.677Z,12.47
2022-12-03T18:19:25.202Z,11.77
2022-12-03T18:21:52.766Z,11.17
2022-12-03T18:24:20.290Z,15.00
2022-12-03T18:26:47.826Z,14.03
2022-12-03T18:29:15.390Z,12.37
2022-12-03T18:31:42.958Z,14.43
2022-12-03T18:34:11.218Z,15.50
2022-12-03T18:36:38.780Z,13.03
2022-12-03T18:39:06.311Z,11.57
2022-12-03T18:41:34.598Z,13.80
2022-12-03T18:44:02.203Z,12.43
2022-12-03T18:48:57.253Z,11.50
2022-12-03T18:51:24.816Z,13.40
2022-12-03T18:53:53.109Z,14.73
2022-12-03T18:56:21.403Z,13.00
2022-12-03T18:58:49.006Z,12.10
2022-12-03T19:01:16.622Z,11.23
2022-12-03T19:03:44.066Z,13.20
2022-12-03T19:06:18.697Z,11.90
2022-12-03T19:08:42.563Z,12.57
2022-12-03T19:11:10.854Z,12.73
2022-12-03T19:13:38.439Z,12.40
2022-12-03T19:16:06.052Z,12.40
2022-12-03T19:18:33.537Z,11.83
2022-12-03T19:21:01.702Z,16.65
2022-12-03T19:23:29.237Z,14.27
2022-12-03T19:26:00.513Z,12.40
2022-12-03T19:28:28.098Z,12.10
2022-12-03T19:31:04.382Z,12.27
2022-12-03T19:33:31.870Z,12.13
2022-12-03T19:36:00.213Z,12.73
2022-12-03T19:38:27.748Z,12.57
2022-12-03T19:40:58.226Z,12.87
2022-12-03T19:43:26.559Z,12.30
2022-12-03T19:45:54.209Z,12.97
2022-12-03T19:48:21.668Z,12.33
2022-12-03T19:50:58.374Z,13.40
2022-12-03T19:53:16.767Z,14.10
2022-12-03T19:55:44.291Z,14.73
2022-12-03T19:58:12.624Z,13.27
2022-12-03T20:00:40.148Z,12.80
2022-12-03T20:03:07.810Z,12.80
2022-12-03T20:05:35.243Z,14.10
2022-12-03T20:08:02.833Z,16.40
2022-12-03T20:10:30.287Z,18.30
2022-12-03T20:12:58.462Z,15.43
2022-12-03T20:15:25.988Z,12.77
2022-12-03T20:17:53.511Z,12.70
2022-12-03T20:20:21.204Z,11.90
2022-12-03T20:22:48.729Z,12.87
2022-12-03T20:25:16.263Z,13.27
2022-12-03T20:27:43.838Z,12.87
2022-12-03T20:30:11.426Z,14.17
2022-12-03T20:32:44.894Z,11.17
2022-12-03T20:35:06.531Z,13.57
2022-12-03T20:37:34.055Z,12.60
2022-12-03T20:40:01.581Z,13.40
2022-12-03T20:42:29.148Z,12.70
2022-12-03T20:44:57.437Z,12.67
2022-12-03T20:47:25.790Z,11.80
2022-12-03T20:49:54.561Z,11.07
2022-12-03T20:52:21.776Z,11.83
2022-12-03T20:54:49.299Z,12.70
2022-12-03T20:57:17.635Z,12.50
2022-12-03T20:59:45.155Z,13.20
2022-12-03T21:02:12.887Z,12.27
2022-12-03T21:04:41.420Z,13.33
2022-12-03T21:07:08.942Z,13.43
2022-12-03T21:09:37.234Z,13.03
2022-12-03T21:12:04.850Z,13.20
2022-12-03T21:14:32.363Z,13.33
2022-12-03T21:17:08.438Z,12.33
2022-12-03T21:19:28.340Z,13.40
2022-12-03T21:24:32.841Z,13.43
2022-12-03T21:27:00.388Z,16.00
2022-12-03T21:29:28.668Z,11.27
2022-12-03T21:31:57.474Z,11.80
2022-12-03T21:34:25.008Z,12.80
2022-12-03T21:36:52.533Z,12.60
2022-12-03T21:39:20.126Z,12.07
2022-12-03T21:42:34.800Z,16.23
2022-12-03T21:44:15.965Z,12.50
2022-12-03T21:47:10.839Z,12.43
2022-12-03T21:49:11.065Z,11.97
2022-12-03T21:51:39.387Z,13.00
2022-12-03T21:54:07.038Z,12.47
2022-12-03T21:56:34.575Z,11.73
2022-12-03T21:59:02.868Z,12.10
2022-12-03T22:01:30.572Z,12.07
2022-12-03T22:03:58.804Z,12.43
2022-12-03T22:06:26.337Z,10.57
2022-12-03T22:08:54.681Z,11.40
2022-12-03T22:11:22.210Z,11.47
2022-12-03T22:13:49.739Z,12.30
2022-12-03T22:16:18.179Z,11.30
2022-12-03T22:18:45.632Z,12.17
2022-12-03T22:21:13.160Z,15.80
2022-12-03T22:23:41.012Z,15.60
2022-12-03T22:26:08.544Z,13.00
2022-12-03T22:28:36.840Z,12.27
2022-12-03T22:31:07.188Z,12.60
2022-12-03T22:33:34.626Z,11.87
2022-12-03T22:36:02.153Z,12.10
2022-12-03T22:38:29.726Z,11.83
2022-12-03T22:40:58.027Z,12.23
2022-12-03T22:43:25.612Z,11.47
2022-12-03T22:45:53.248Z,11.13
2022-12-03T22:48:20.729Z,11.17
2022-12-03T22:50:48.274Z,11.00
2022-12-03T22:53:15.838Z,11.40
2022-12-03T22:55:43.384Z,11.90
2022-12-03T22:58:10.908Z,11.47
2022-12-03T23:00:39.230Z,11.37
2022-12-03T23:03:06.810Z,11.30
2022-12-03T23:05:36.928Z,10.80
2022-12-03T23:08:04.532Z,12.57
2022-12-03T23:10:34.051Z,11.60
2022-12-03T23:12:59.542Z,12.20
2022-12-03T23:15:27.946Z,11.53
2022-12-03T23:17:55.468Z,11.80
2022-12-03T23:20:22.996Z,11.00
2022-12-03T23:22:50.586Z,14.90
2022-12-03T23:25:18.093Z,12.60
2022-12-03T23:27:45.627Z,14.27
2022-12-03T23:30:13.961Z,12.17
2022-12-03T23:32:41.494Z,12.20
2022-12-03T23:35:09.099Z,12.00
2022-12-03T23:37:37.183Z,12.00
2022-12-03T23:40:05.692Z,12.27
2022-12-03T23:42:33.219Z,12.27
2022-12-03T23:45:01.560Z,11.63
2022-12-03T23:47:29.094Z,11.87
2022-12-03T23:49:56.902Z,11.40
2022-12-03T23:52:25.130Z,11.93
2022-12-03T23:54:52.654Z,11.20
2022-12-03T23:57:20.957Z,11.87
2022-12-03T23:59:48.560Z,12.83
